createdAt,value
2023-05-16T00:00:15.732Z,539.00
2023-05-16T00:01:15.787Z,525.00
2023-05-16T00:02:15.885Z,523.00
2023-05-16T00:03:15.992Z,528.00
2023-05-16T00:04:16.008Z,523.00
2023-05-16T00:05:16.096Z,529.00
2023-05-16T00:06:16.100Z,518.00
2023-05-16T00:07:16.172Z,521.00
2023-05-16T00:08:16.233Z,525.00
2023-05-16T00:09:16.271Z,521.00
2023-05-16T00:10:16.345Z,525.00
2023-05-16T00:11:16.408Z,519.00
2023-05-16T00:12:16.465Z,520.00
2023-05-16T00:13:16.529Z,522.00
2023-05-16T00:14:16.584Z,526.00
2023-05-16T00:15:16.657Z,518.00
2023-05-16T00:17:05.484Z,500.00
2023-05-16T00:18:05.304Z,500.00
2023-05-16T00:19:05.279Z,500.00
2023-05-16T00:20:05.229Z,500.00
2023-05-16T00:21:05.211Z,500.00
2023-05-16T00:22:05.207Z,504.00
2023-05-16T00:23:05.191Z,501.00
2023-05-16T00:24:05.201Z,503.00
2023-05-16T00:25:05.169Z,505.00
2023-05-16T00:26:05.155Z,503.00
2023-05-16T00:27:05.146Z,500.00
2023-05-16T00:28:05.138Z,504.00
2023-05-16T00:29:05.117Z,516.00
2023-05-16T00:30:05.160Z,505.00
2023-05-16T00:31:05.107Z,511.00
2023-05-16T00:32:05.133Z,509.00
2023-05-16T00:33:05.101Z,513.00
2023-05-16T00:34:05.121Z,507.00
2023-05-16T00:35:05.062Z,511.00
2023-05-16T00:36:05.071Z,505.00
2023-05-16T00:37:05.063Z,515.00
2023-05-16T00:38:05.058Z,512.00
2023-05-16T00:39:05.065Z,500.00
2023-05-16T00:40:05.034Z,521.00
2023-05-16T00:41:05.035Z,503.00
2023-05-16T00:42:05.021Z,500.00
2023-05-16T00:43:05.015Z,506.00
2023-05-16T00:44:05.002Z,509.00
2023-05-16T00:45:05.036Z,504.00
2023-05-16T00:46:05.025Z,522.00
2023-05-16T00:47:04.977Z,501.00
2023-05-16T00:48:05.028Z,508.00
2023-05-16T00:49:04.984Z,512.00
2023-05-16T00:50:04.976Z,515.00
2023-05-16T00:51:04.952Z,509.00
2023-05-16T00:52:04.964Z,513.00
2023-05-16T00:53:04.929Z,507.00
2023-05-16T00:54:04.919Z,501.00
2023-05-16T00:55:04.917Z,511.00
2023-05-16T00:56:04.952Z,505.00
2023-05-16T00:57:05.008Z,518.00
2023-05-16T00:58:05.046Z,511.00
2023-05-16T00:59:05.095Z,514.00
2023-05-16T01:00:05.142Z,507.00
2023-05-16T01:01:05.274Z,500.00
2023-05-16T01:02:05.218Z,504.00
2023-05-16T01:03:05.335Z,509.00
2023-05-16T01:04:05.631Z,503.00
2023-05-16T01:05:05.404Z,509.00
2023-05-16T01:06:05.404Z,503.00
2023-05-16T01:07:05.440Z,518.00
2023-05-16T01:08:05.495Z,513.00
2023-05-16T01:09:05.541Z,504.00
2023-05-16T01:10:05.589Z,507.00
2023-05-16T01:11:05.619Z,515.00
2023-05-16T01:12:05.681Z,508.00
2023-05-16T01:13:05.732Z,513.00
2023-05-16T01:14:05.781Z,503.00
2023-05-16T01:15:05.835Z,514.00
2023-05-16T01:16:05.962Z,506.00
2023-05-16T01:17:05.937Z,511.00
2023-05-16T01:18:06.036Z,505.00
2023-05-16T01:19:06.138Z,512.00
2023-05-16T01:20:06.093Z,506.00
2023-05-16T01:21:06.151Z,506.00
2023-05-16T01:22:06.214Z,512.00
2023-05-16T01:23:06.264Z,516.00
2023-05-16T01:24:06.304Z,509.00
2023-05-16T01:25:06.357Z,506.00
2023-05-16T01:26:06.522Z,503.00
2023-05-16T01:27:06.462Z,507.00
2023-05-16T01:28:06.506Z,503.00
2023-05-16T01:29:06.558Z,504.00
2023-05-16T01:30:06.629Z,511.00
2023-05-16T01:31:06.716Z,517.00
2023-05-16T01:32:06.758Z,511.00
2023-05-16T01:33:06.808Z,507.00
2023-05-16T01:34:06.854Z,513.00
2023-05-16T01:35:06.888Z,507.00
2023-05-16T01:36:06.946Z,501.00
2023-05-16T01:37:06.998Z,522.00
2023-05-16T01:38:07.039Z,522.00
2023-05-16T01:39:07.081Z,508.00
2023-05-16T01:40:07.142Z,512.00
2023-05-16T01:41:07.205Z,515.00
2023-05-16T01:42:07.258Z,508.00
2023-05-16T01:43:07.293Z,508.00
2023-05-16T01:44:07.349Z,507.00
2023-05-16T01:45:07.398Z,523.00
2023-05-16T01:46:07.461Z,507.00
2023-05-16T01:47:07.621Z,513.00
2023-05-16T01:48:07.615Z,509.00
2023-05-16T01:49:07.609Z,507.00
2023-05-16T01:50:07.648Z,513.00
2023-05-16T01:51:07.697Z,519.00
2023-05-16T01:52:07.733Z,518.00
2023-05-16T01:53:07.806Z,503.00
2023-05-16T01:54:07.850Z,513.00
2023-05-16T01:55:07.912Z,516.00
2023-05-16T01:56:08.036Z,503.00
2023-05-16T01:57:08.044Z,511.00
2023-05-16T01:58:08.075Z,513.00
2023-05-16T01:59:08.118Z,509.00
2023-05-16T02:00:08.165Z,518.00
2023-05-16T02:01:08.254Z,512.00
2023-05-16T02:02:08.269Z,514.00
2023-05-16T02:03:08.360Z,516.00
2023-05-16T02:04:08.381Z,513.00
2023-05-16T02:05:08.411Z,516.00
2023-05-16T02:06:08.470Z,510.00
2023-05-16T02:07:08.504Z,511.00
2023-05-16T02:08:08.549Z,514.00
2023-05-16T02:09:08.594Z,510.00
2023-05-16T02:10:08.651Z,515.00
2023-05-16T02:11:08.671Z,513.00
2023-05-16T02:12:08.718Z,509.00
2023-05-16T02:13:08.776Z,515.00
2023-05-16T02:14:08.820Z,504.00
2023-05-16T02:15:08.889Z,516.00
2023-05-16T02:16:08.954Z,519.00
2023-05-16T02:17:09.016Z,514.00
2023-05-16T02:18:09.054Z,521.00
2023-05-16T02:19:09.058Z,517.00
2023-05-16T02:20:09.071Z,519.00
2023-05-16T02:21:09.109Z,527.00
2023-05-16T02:22:09.124Z,511.00
2023-05-16T02:23:09.142Z,513.00
2023-05-16T02:24:09.149Z,515.00
2023-05-16T02:25:09.185Z,516.00
2023-05-16T02:26:09.227Z,510.00
2023-05-16T02:27:09.246Z,519.00
2023-05-16T02:28:09.278Z,521.00
2023-05-16T02:29:09.300Z,506.00
2023-05-16T02:30:09.349Z,504.00
2023-05-16T02:31:09.446Z,515.00
2023-05-16T02:32:09.416Z,516.00
2023-05-16T02:33:09.520Z,514.00
2023-05-16T02:34:09.486Z,505.00
2023-05-16T02:35:09.510Z,505.00
2023-05-16T02:36:09.566Z,504.00
2023-05-16T02:37:10.734Z,504.00
2023-05-16T02:38:09.556Z,520.00
2023-05-16T02:39:09.533Z,522.00
2023-05-16T02:40:09.519Z,515.00
2023-05-16T02:41:09.502Z,522.00
2023-05-16T02:42:09.492Z,519.00
2023-05-16T02:43:09.478Z,517.00
2023-05-16T02:44:09.460Z,520.00
2023-05-16T02:45:09.444Z,509.00
2023-05-16T02:46:09.459Z,504.00
2023-05-16T02:47:09.420Z,518.00
2023-05-16T02:48:09.532Z,508.00
2023-05-16T02:49:09.408Z,510.00
2023-05-16T02:50:09.387Z,522.00
2023-05-16T02:51:09.374Z,520.00
2023-05-16T02:52:09.353Z,510.00
2023-05-16T02:53:09.342Z,512.00
2023-05-16T02:54:09.339Z,506.00
2023-05-16T02:55:23.898Z,516.00
2023-05-16T02:56:10.321Z,516.00
2023-05-16T02:57:09.300Z,517.00
2023-05-16T02:58:09.286Z,514.00
2023-05-16T02:59:09.291Z,503.00
2023-05-16T03:00:09.272Z,514.00
2023-05-16T03:01:09.350Z,509.00
2023-05-16T03:02:09.336Z,509.00
2023-05-16T03:03:09.333Z,511.00
2023-05-16T03:04:09.258Z,506.00
2023-05-16T03:05:09.219Z,503.00
2023-05-16T03:06:09.270Z,519.00
2023-05-16T03:07:09.295Z,506.00
2023-05-16T03:08:09.321Z,511.00
2023-05-16T03:09:09.384Z,515.00
2023-05-16T03:10:09.443Z,513.00
2023-05-16T03:11:09.455Z,502.00
2023-05-16T03:12:09.478Z,516.00
2023-05-16T03:13:09.516Z,507.00
2023-05-16T03:14:09.531Z,516.00
2023-05-16T03:15:09.626Z,516.00
2023-05-16T03:16:09.643Z,510.00
2023-05-16T03:17:09.584Z,510.00
2023-05-16T03:18:09.659Z,502.00
2023-05-16T03:19:09.657Z,513.00
2023-05-16T03:20:09.668Z,508.00
2023-05-16T03:21:09.698Z,514.00
2023-05-16T03:22:09.725Z,504.00
2023-05-16T03:23:09.748Z,517.00
2023-05-16T03:24:09.834Z,522.00
2023-05-16T03:25:09.818Z,503.00
2023-05-16T03:26:09.867Z,522.00
2023-05-16T03:27:09.900Z,511.00
2023-05-16T03:28:09.923Z,513.00
2023-05-16T03:29:09.940Z,525.00
2023-05-16T03:30:09.943Z,524.00
2023-05-16T03:31:10.040Z,508.00
2023-05-16T03:32:10.074Z,510.00
2023-05-16T03:33:10.104Z,513.00
2023-05-16T03:34:10.044Z,513.00
2023-05-16T03:35:10.039Z,510.00
2023-05-16T03:36:10.073Z,513.00
2023-05-16T03:37:10.070Z,512.00
2023-05-16T03:38:10.106Z,512.00
2023-05-16T03:39:10.128Z,518.00
2023-05-16T03:40:10.136Z,515.00
2023-05-16T03:41:10.151Z,512.00
2023-05-16T03:42:10.170Z,508.00
2023-05-16T03:43:10.176Z,518.00
2023-05-16T03:44:10.213Z,511.00
2023-05-16T03:45:10.236Z,521.00
2023-05-16T03:46:10.345Z,518.00
2023-05-16T03:47:10.290Z,511.00
2023-05-16T03:48:10.354Z,517.00
2023-05-16T03:49:10.308Z,514.00
2023-05-16T03:50:10.321Z,507.00
2023-05-16T03:51:10.377Z,528.00
2023-05-16T03:52:10.401Z,522.00
2023-05-16T03:53:10.445Z,512.00
2023-05-16T03:54:10.458Z,526.00
2023-05-16T03:55:10.489Z,523.00
2023-05-16T03:56:10.526Z,506.00
2023-05-16T03:57:10.556Z,506.00
2023-05-16T03:58:10.551Z,509.00
2023-05-16T03:59:10.542Z,513.00
2023-05-16T04:00:10.547Z,506.00
2023-05-16T04:01:10.577Z,518.00
2023-05-16T04:02:10.627Z,518.00
2023-05-16T04:03:10.644Z,519.00
2023-05-16T04:04:10.622Z,517.00
2023-05-16T04:05:10.700Z,514.00
2023-05-16T04:06:10.734Z,517.00
2023-05-16T04:07:10.667Z,506.00
2023-05-16T04:08:10.681Z,517.00
2023-05-16T04:09:10.683Z,504.00
2023-05-16T04:10:10.682Z,510.00
2023-05-16T04:11:10.697Z,522.00
2023-05-16T04:12:10.680Z,520.00
2023-05-16T04:13:10.689Z,513.00
2023-05-16T04:14:10.751Z,514.00
2023-05-16T04:15:10.705Z,509.00
2023-05-16T04:16:10.760Z,511.00
2023-05-16T04:17:11.048Z,510.00
2023-05-16T04:18:10.930Z,508.00
2023-05-16T04:19:10.904Z,507.00
2023-05-16T04:20:10.874Z,517.00
2023-05-16T04:21:10.944Z,504.00
2023-05-16T04:22:10.926Z,513.00
2023-05-16T04:23:10.957Z,516.00
2023-05-16T04:24:10.965Z,515.00
2023-05-16T04:25:10.996Z,519.00
2023-05-16T04:26:11.018Z,514.00
2023-05-16T04:27:11.005Z,513.00
2023-05-16T04:28:11.002Z,514.00
2023-05-16T04:29:10.998Z,515.00
2023-05-16T04:30:10.979Z,510.00
2023-05-16T04:31:11.021Z,509.00
2023-05-16T04:32:10.965Z,508.00
2023-05-16T04:33:11.001Z,517.00
2023-05-16T04:34:10.924Z,515.00
2023-05-16T04:35:10.902Z,513.00
2023-05-16T04:36:10.905Z,507.00
2023-05-16T04:37:10.878Z,514.00
2023-05-16T04:38:10.882Z,509.00
2023-05-16T04:39:10.868Z,503.00
2023-05-16T04:40:10.866Z,515.00
2023-05-16T04:41:10.862Z,519.00
2023-05-16T04:42:10.853Z,513.00
2023-05-16T04:43:10.854Z,514.00
2023-05-16T04:44:10.857Z,518.00
2023-05-16T04:45:10.839Z,509.00
2023-05-16T04:46:10.856Z,505.00
2023-05-16T04:47:10.832Z,516.00
2023-05-16T04:48:10.901Z,522.00
2023-05-16T04:49:10.840Z,524.00
2023-05-16T04:50:10.839Z,510.00
2023-05-16T04:51:10.849Z,517.00
2023-05-16T04:52:10.864Z,506.00
2023-05-16T04:53:10.978Z,525.00
2023-05-16T04:54:10.896Z,516.00
2023-05-16T04:55:10.895Z,526.00
2023-05-16T04:56:10.900Z,528.00
2023-05-16T04:57:10.912Z,515.00
2023-05-16T04:58:10.935Z,510.00
2023-05-16T04:59:10.937Z,515.00
2023-05-16T05:00:10.929Z,508.00
2023-05-16T05:01:11.018Z,503.00
2023-05-16T05:02:11.013Z,515.00
2023-05-16T05:03:11.184Z,520.00
2023-05-16T05:04:11.026Z,515.00
2023-05-16T05:05:11.107Z,518.00
2023-05-16T05:06:11.066Z,528.00
2023-05-16T05:07:11.085Z,515.00
2023-05-16T05:08:11.104Z,516.00
2023-05-16T05:09:11.109Z,515.00
2023-05-16T05:10:11.123Z,507.00
2023-05-16T05:11:11.127Z,523.00
2023-05-16T05:12:11.120Z,523.00
2023-05-16T05:13:11.141Z,509.00
2023-05-16T05:14:11.092Z,521.00
2023-05-16T05:15:11.109Z,510.00
2023-05-16T05:16:11.101Z,515.00
2023-05-16T05:17:11.124Z,507.00
2023-05-16T05:18:11.252Z,524.00
2023-05-16T05:19:11.165Z,523.00
2023-05-16T05:20:11.084Z,530.00
2023-05-16T05:21:11.092Z,547.00
2023-05-16T05:22:11.066Z,502.00
2023-05-16T05:23:11.147Z,477.00
2023-05-16T05:24:11.052Z,470.00
2023-05-16T05:25:11.053Z,483.00
2023-05-16T05:26:11.069Z,483.00
2023-05-16T05:27:11.048Z,517.00
2023-05-16T05:28:11.065Z,539.00
2023-05-16T05:29:11.192Z,548.00
2023-05-16T05:30:11.132Z,556.00
2023-05-16T05:31:11.166Z,575.00
2023-05-16T05:32:11.226Z,555.00
2023-05-16T05:33:11.256Z,557.00
2023-05-16T05:34:12.199Z,558.00
2023-05-16T05:35:11.209Z,560.00
2023-05-16T05:36:11.226Z,563.00
2023-05-16T05:37:11.219Z,573.00
2023-05-16T05:38:11.227Z,584.00
2023-05-16T05:39:11.225Z,599.00
2023-05-16T05:40:11.220Z,603.00
2023-05-16T05:41:11.213Z,618.00
2023-05-16T05:42:11.200Z,627.00
2023-05-16T05:43:13.063Z,625.00
2023-05-16T05:44:11.184Z,643.00
2023-05-16T05:45:11.166Z,645.00
2023-05-16T05:46:11.274Z,663.00
2023-05-16T05:47:11.137Z,695.00
2023-05-16T05:48:11.199Z,711.00
2023-05-16T05:49:11.137Z,751.00
2023-05-16T05:50:11.175Z,783.00
2023-05-16T05:51:11.211Z,827.00
2023-05-16T05:52:12.029Z,847.00
2023-05-16T05:53:11.247Z,842.00
2023-05-16T05:54:11.258Z,884.00
2023-05-16T05:55:11.286Z,920.00
2023-05-16T05:56:11.289Z,945.00
2023-05-16T05:57:11.466Z,952.00
2023-05-16T05:58:11.397Z,1006.00
2023-05-16T05:59:11.346Z,1056.00
2023-05-16T06:00:11.351Z,1089.00
2023-05-16T06:01:11.362Z,1114.00
2023-05-16T06:02:11.417Z,1151.00
2023-05-16T06:03:11.497Z,1170.00
2023-05-16T06:04:11.410Z,1203.00
2023-05-16T06:05:11.450Z,1233.00
2023-05-16T06:06:13.076Z,1269.00
2023-05-16T06:07:11.432Z,1296.00
2023-05-16T06:08:11.446Z,1338.00
2023-05-16T06:09:11.462Z,1378.00
2023-05-16T06:10:11.494Z,1432.00
2023-05-16T06:11:11.429Z,1434.00
2023-05-16T06:12:11.400Z,1442.00
2023-05-16T06:13:11.376Z,1462.00
2023-05-16T06:14:11.352Z,1491.00
2023-05-16T06:15:11.332Z,1540.00
2023-05-16T06:16:12.049Z,1568.00
2023-05-16T06:17:11.392Z,1618.00
2023-05-16T06:18:22.214Z,1663.00
2023-05-16T06:19:11.249Z,1666.00
2023-05-16T06:20:11.184Z,1676.00
2023-05-16T06:21:13.066Z,1698.00
2023-05-16T06:22:11.125Z,1736.00
2023-05-16T06:23:12.077Z,1804.00
2023-05-16T06:24:11.059Z,1828.00
2023-05-16T06:25:11.961Z,1818.00
2023-05-16T06:26:11.006Z,1807.00
2023-05-16T06:27:10.978Z,1808.00
2023-05-16T06:28:10.947Z,1812.00
2023-05-16T06:29:10.911Z,1791.00
2023-05-16T06:30:10.899Z,1762.00
2023-05-16T06:31:10.937Z,1770.00
2023-05-16T06:32:13.213Z,1782.00
2023-05-16T06:33:10.832Z,1830.00
2023-05-16T06:34:10.775Z,1823.00
2023-05-16T06:35:10.780Z,1805.00
2023-05-16T06:36:10.725Z,1830.00
2023-05-16T06:37:10.691Z,1790.00
2023-05-16T06:38:10.672Z,1786.00
2023-05-16T06:39:10.659Z,1815.00
2023-05-16T06:40:10.630Z,1817.00
2023-05-16T06:41:10.609Z,1818.00
2023-05-16T06:42:10.600Z,1816.00
2023-05-16T06:43:10.642Z,1805.00
2023-05-16T06:44:10.561Z,1801.00
2023-05-16T06:45:10.550Z,1795.00
2023-05-16T06:46:10.565Z,1785.00
2023-05-16T06:47:10.527Z,1770.00
2023-05-16T06:48:10.509Z,1778.00
2023-05-16T06:49:10.473Z,1759.00
2023-05-16T06:50:10.444Z,1762.00
2023-05-16T06:51:10.485Z,1767.00
2023-05-16T06:52:10.531Z,1763.00
2023-05-16T06:53:10.578Z,1758.00
2023-05-16T06:54:10.612Z,1752.00
2023-05-16T06:55:10.648Z,1749.00
2023-05-16T06:56:10.701Z,1731.00
2023-05-16T06:57:10.726Z,1748.00
2023-05-16T06:58:10.749Z,1737.00
2023-05-16T06:59:10.780Z,1720.00
2023-05-16T07:00:10.822Z,1718.00
2023-05-16T07:01:10.897Z,1719.00
2023-05-16T07:02:10.933Z,1690.00
2023-05-16T07:03:11.015Z,1683.00
2023-05-16T07:04:11.074Z,1687.00
2023-05-16T07:05:11.054Z,1695.00
2023-05-16T07:06:11.072Z,1667.00
2023-05-16T07:07:11.110Z,1689.00
2023-05-16T07:08:11.156Z,1688.00
2023-05-16T07:09:11.200Z,1679.00
2023-05-16T07:10:11.259Z,1679.00
2023-05-16T07:11:11.311Z,1665.00
2023-05-16T07:12:14.129Z,1673.00
2023-05-16T07:13:11.347Z,1633.00
2023-05-16T07:14:11.324Z,1632.00
2023-05-16T07:15:11.308Z,1666.00
2023-05-16T07:16:11.621Z,1652.00
2023-05-16T07:17:11.302Z,1654.00
2023-05-16T07:18:12.183Z,1641.00
2023-05-16T07:19:11.242Z,1635.00
2023-05-16T07:20:11.210Z,1647.00
2023-05-16T07:21:11.206Z,1644.00
2023-05-16T07:22:11.183Z,1639.00
2023-05-16T07:23:11.985Z,1654.00
2023-05-16T07:24:11.139Z,1203.00
2023-05-16T07:25:11.115Z,1089.00
2023-05-16T07:26:11.125Z,922.00
2023-05-16T07:27:12.102Z,909.00
2023-05-16T07:28:12.049Z,837.00
2023-05-16T07:29:11.103Z,729.00
2023-05-16T07:30:11.099Z,667.00
2023-05-16T07:31:11.120Z,653.00
2023-05-16T07:32:11.463Z,636.00
2023-05-16T07:33:11.247Z,639.00
2023-05-16T07:34:11.180Z,637.00
2023-05-16T07:35:12.067Z,645.00
2023-05-16T07:36:17.010Z,637.00
2023-05-16T07:37:12.091Z,638.00
2023-05-16T07:38:11.092Z,642.00
2023-05-16T07:39:11.109Z,636.00
2023-05-16T07:40:11.098Z,577.00
2023-05-16T07:41:11.111Z,590.00
2023-05-16T07:42:11.123Z,576.00
2023-05-16T07:43:11.121Z,576.00
2023-05-16T07:44:11.113Z,616.00
2023-05-16T07:45:12.098Z,618.00
2023-05-16T07:46:11.169Z,625.00
2023-05-16T07:47:11.116Z,635.00
2023-05-16T07:48:11.126Z,641.00
2023-05-16T07:49:11.098Z,617.00
2023-05-16T07:50:11.099Z,616.00
2023-05-16T07:51:11.078Z,619.00
2023-05-16T07:52:11.116Z,616.00
2023-05-16T07:53:11.073Z,616.00
2023-05-16T07:54:11.062Z,615.00
2023-05-16T07:55:11.046Z,623.00
2023-05-16T07:56:11.058Z,616.00
2023-05-16T07:57:11.050Z,597.00
2023-05-16T07:58:11.046Z,590.00
2023-05-16T07:59:11.079Z,603.00
2023-05-16T08:00:11.048Z,607.00
2023-05-16T08:01:11.078Z,609.00
2023-05-16T08:02:11.134Z,613.00
2023-05-16T08:03:11.214Z,601.00
2023-05-16T08:04:11.111Z,604.00
2023-05-16T08:05:11.244Z,592.00
2023-05-16T08:06:11.262Z,587.00
2023-05-16T08:07:11.162Z,603.00
2023-05-16T08:08:11.172Z,597.00
2023-05-16T08:09:11.188Z,601.00
2023-05-16T08:10:13.293Z,592.00
2023-05-16T08:11:11.215Z,583.00
2023-05-16T08:12:12.064Z,582.00
2023-05-16T08:13:11.243Z,604.00
2023-05-16T08:14:11.231Z,624.00
2023-05-16T08:15:11.269Z,618.00
2023-05-16T08:16:11.285Z,625.00
2023-05-16T08:17:11.227Z,627.00
2023-05-16T08:18:11.224Z,632.00
2023-05-16T08:19:11.280Z,639.00
2023-05-16T08:20:17.039Z,645.00
2023-05-16T08:21:11.203Z,627.00
2023-05-16T08:22:11.219Z,631.00
2023-05-16T08:23:11.126Z,639.00
2023-05-16T08:24:11.138Z,645.00
2023-05-16T08:25:11.085Z,665.00
2023-05-16T08:26:11.998Z,662.00
2023-05-16T08:27:11.035Z,687.00
2023-05-16T08:28:11.023Z,725.00
2023-05-16T08:29:10.997Z,707.00
2023-05-16T08:30:10.970Z,703.00
2023-05-16T08:31:11.009Z,704.00
2023-05-16T08:32:11.581Z,716.00
2023-05-16T08:33:11.010Z,771.00
2023-05-16T08:34:10.872Z,765.00
2023-05-16T08:35:10.836Z,767.00
2023-05-16T08:36:10.812Z,773.00
2023-05-16T08:37:11.588Z,790.00
2023-05-16T08:38:10.762Z,836.00
2023-05-16T08:39:10.712Z,904.00
2023-05-16T08:40:10.815Z,933.00
2023-05-16T08:41:10.635Z,931.00
2023-05-16T08:42:10.608Z,964.00
2023-05-16T08:43:10.562Z,966.00
2023-05-16T08:44:11.103Z,972.00
2023-05-16T08:45:11.551Z,968.00
2023-05-16T08:46:10.537Z,981.00
2023-05-16T08:47:10.642Z,1008.00
2023-05-16T08:48:10.788Z,1049.00
2023-05-16T08:49:10.508Z,1124.00
2023-05-16T08:50:10.521Z,1134.00
2023-05-16T08:51:10.453Z,1164.00
2023-05-16T08:52:25.082Z,1177.00
2023-05-16T08:53:10.388Z,1181.00
2023-05-16T08:54:10.340Z,1191.00
2023-05-16T08:55:12.190Z,1209.00
2023-05-16T08:56:10.290Z,1181.00
2023-05-16T08:57:10.231Z,1200.00
2023-05-16T08:58:10.236Z,1232.00
2023-05-16T08:59:13.243Z,1286.00
2023-05-16T09:00:10.113Z,1363.00
2023-05-16T09:01:10.187Z,1356.00
2023-05-16T09:02:11.656Z,1384.00
2023-05-16T09:03:10.024Z,1426.00
2023-05-16T09:04:10.632Z,1439.00
2023-05-16T09:05:09.947Z,1440.00
2023-05-16T09:06:09.917Z,1459.00
2023-05-16T09:07:09.978Z,1466.00
2023-05-16T09:08:09.821Z,1486.00
2023-05-16T09:09:09.802Z,1509.00
2023-05-16T09:10:09.733Z,1512.00
2023-05-16T09:11:09.702Z,1556.00
2023-05-16T09:12:11.695Z,1553.00
2023-05-16T09:13:09.631Z,1568.00
2023-05-16T09:14:09.597Z,1566.00
2023-05-16T09:16:09.592Z,1601.00
2023-05-16T09:17:12.326Z,1608.00
2023-05-16T09:18:10.599Z,1602.00
2023-05-16T09:19:09.559Z,1613.00
2023-05-16T09:20:09.498Z,1628.00
2023-05-16T09:21:09.462Z,1664.00
2023-05-16T09:22:09.440Z,1698.00
2023-05-16T09:23:10.121Z,1744.00
2023-05-16T09:24:09.582Z,1746.00
2023-05-16T09:25:18.312Z,1746.00
2023-05-16T09:26:10.594Z,1747.00
2023-05-16T09:27:09.521Z,1759.00
2023-05-16T09:28:09.484Z,1749.00
2023-05-16T09:29:09.450Z,1760.00
2023-05-16T09:30:09.420Z,1778.00
2023-05-16T09:31:09.436Z,1807.00
2023-05-16T09:32:09.329Z,1883.00
2023-05-16T09:33:20.132Z,1888.00
2023-05-16T09:34:11.153Z,1891.00
2023-05-16T09:35:09.241Z,1899.00
2023-05-16T09:36:09.168Z,1908.00
2023-05-16T09:37:09.127Z,1916.00
2023-05-16T09:38:09.070Z,1945.00
2023-05-16T09:39:11.600Z,1962.00
2023-05-16T09:40:09.289Z,1991.00
2023-05-16T09:41:09.249Z,1994.00
2023-05-16T09:42:09.231Z,1995.00
2023-05-16T09:43:09.166Z,2001.00
2023-05-16T09:44:09.136Z,2009.00
2023-05-16T09:45:09.606Z,2031.00
2023-05-16T09:46:09.124Z,1997.00
2023-05-16T09:47:09.112Z,2010.00
2023-05-16T09:48:09.230Z,2031.00
2023-05-16T09:49:09.141Z,2079.00
2023-05-16T09:50:09.176Z,2125.00
2023-05-16T09:51:09.673Z,2133.00
2023-05-16T09:52:09.141Z,2135.00
2023-05-16T09:53:09.153Z,2140.00
2023-05-16T09:54:09.197Z,2156.00
2023-05-16T09:55:10.024Z,2174.00
2023-05-16T09:56:09.258Z,2219.00
2023-05-16T09:57:14.121Z,2138.00
2023-05-16T09:58:09.149Z,2140.00
2023-05-16T09:59:09.098Z,2142.00
2023-05-16T10:00:09.062Z,2170.00
2023-05-16T10:01:09.032Z,2218.00
2023-05-16T10:02:08.995Z,2287.00
2023-05-16T10:03:09.003Z,2370.00
2023-05-16T10:04:08.937Z,2398.00
2023-05-16T10:05:08.833Z,2392.00
2023-05-16T10:06:08.834Z,2404.00
2023-05-16T10:07:08.749Z,2458.00
2023-05-16T10:08:08.763Z,2500.00
2023-05-16T10:09:08.787Z,2519.00
2023-05-16T10:10:08.807Z,2540.00
2023-05-16T10:11:08.828Z,2527.00
2023-05-16T10:12:08.837Z,2509.00
2023-05-16T10:13:08.911Z,2510.00
2023-05-16T10:14:08.900Z,2499.00
2023-05-16T10:15:08.937Z,2498.00
2023-05-16T10:16:08.961Z,2487.00
2023-05-16T10:17:08.989Z,2478.00
2023-05-16T10:18:08.982Z,2463.00
2023-05-16T10:19:08.997Z,2471.00
2023-05-16T10:20:09.005Z,2454.00
2023-05-16T10:21:11.222Z,2455.00
2023-05-16T10:22:08.931Z,2459.00
2023-05-16T10:23:08.883Z,2455.00
2023-05-16T10:24:08.844Z,2456.00
2023-05-16T10:25:08.810Z,2458.00
2023-05-16T10:26:08.800Z,2443.00
2023-05-16T10:27:08.855Z,2429.00
2023-05-16T10:28:08.722Z,2454.00
2023-05-16T10:29:08.722Z,2443.00
2023-05-16T10:30:08.659Z,2429.00
2023-05-16T10:31:08.636Z,2426.00
2023-05-16T10:32:08.618Z,2420.00
2023-05-16T10:33:08.597Z,2394.00
2023-05-16T10:34:08.529Z,2396.00
2023-05-16T10:35:08.497Z,2383.00
2023-05-16T10:36:08.482Z,2386.00
2023-05-16T10:37:08.441Z,2361.00
2023-05-16T10:38:08.396Z,2381.00
2023-05-16T10:39:08.376Z,2372.00
2023-05-16T10:40:08.372Z,2372.00
2023-05-16T10:41:08.329Z,2373.00
2023-05-16T10:42:08.267Z,2372.00
2023-05-16T10:43:08.255Z,2356.00
2023-05-16T10:44:08.214Z,2348.00
2023-05-16T10:45:08.250Z,2339.00
2023-05-16T10:46:08.182Z,2339.00
2023-05-16T10:47:08.118Z,2332.00
2023-05-16T10:48:08.100Z,2317.00
2023-05-16T10:49:08.035Z,2322.00
2023-05-16T10:50:08.003Z,2309.00
2023-05-16T10:51:07.969Z,2305.00
2023-05-16T10:52:07.963Z,2306.00
2023-05-16T10:53:07.881Z,2307.00
2023-05-16T10:54:07.844Z,2298.00
2023-05-16T10:55:07.828Z,2289.00
2023-05-16T10:56:07.788Z,2286.00
2023-05-16T10:57:07.778Z,2284.00
2023-05-16T10:58:07.732Z,2271.00
2023-05-16T10:59:08.624Z,2266.00
2023-05-16T11:00:07.656Z,2246.00
2023-05-16T11:01:07.835Z,2247.00
2023-05-16T11:02:07.675Z,2253.00
2023-05-16T11:03:08.250Z,2229.00
2023-05-16T11:04:07.547Z,2237.00
2023-05-16T11:05:07.506Z,2221.00
2023-05-16T11:06:07.468Z,2220.00
2023-05-16T11:07:07.675Z,2225.00
2023-05-16T11:08:07.410Z,2205.00
2023-05-16T11:09:07.392Z,2206.00
2023-05-16T11:10:07.399Z,2206.00
2023-05-16T11:11:07.406Z,2188.00
2023-05-16T11:12:07.427Z,2196.00
2023-05-16T11:13:07.431Z,2187.00
2023-05-16T11:14:07.431Z,2161.00
2023-05-16T11:15:07.492Z,2183.00
2023-05-16T11:16:07.459Z,2178.00
2023-05-16T11:17:07.626Z,2157.00
2023-05-16T11:18:07.531Z,2156.00
2023-05-16T11:19:07.528Z,2157.00
2023-05-16T11:20:07.514Z,2159.00
2023-05-16T11:21:07.503Z,2137.00
2023-05-16T11:22:07.506Z,2144.00
2023-05-16T11:23:07.514Z,2132.00
2023-05-16T11:24:07.530Z,2129.00
2023-05-16T11:25:07.551Z,2109.00
2023-05-16T11:26:07.582Z,2123.00
2023-05-16T11:27:07.556Z,2118.00
2023-05-16T11:28:07.569Z,2113.00
2023-05-16T11:29:07.579Z,2117.00
2023-05-16T11:30:07.594Z,2110.00
2023-05-16T11:31:07.697Z,2102.00
2023-05-16T11:32:07.624Z,2100.00
2023-05-16T11:33:07.692Z,2094.00
2023-05-16T11:34:07.649Z,2091.00
2023-05-16T11:35:07.656Z,2080.00
2023-05-16T11:37:07.662Z,2081.00
2023-05-16T11:38:07.600Z,2083.00
2023-05-16T11:39:07.615Z,2072.00
2023-05-16T11:40:07.584Z,2072.00
2023-05-16T11:41:07.517Z,2067.00
2023-05-16T11:42:07.489Z,2075.00
2023-05-16T11:43:07.655Z,2053.00
2023-05-16T11:44:07.437Z,2069.00
2023-05-16T11:45:07.401Z,2040.00
2023-05-16T11:46:07.413Z,2045.00
2023-05-16T11:47:07.382Z,2039.00
2023-05-16T11:48:07.337Z,2041.00
2023-05-16T11:49:07.317Z,2043.00
2023-05-16T11:50:07.280Z,2044.00
2023-05-16T11:51:07.244Z,2042.00
2023-05-16T11:52:07.220Z,2035.00
2023-05-16T11:53:08.136Z,2029.00
2023-05-16T11:54:07.133Z,2027.00
2023-05-16T11:55:07.108Z,2019.00
2023-05-16T11:56:07.109Z,2016.00
2023-05-16T11:57:07.073Z,2026.00
2023-05-16T11:58:07.033Z,2017.00
2023-05-16T11:59:06.995Z,2001.00
2023-05-16T12:00:06.969Z,2007.00
2023-05-16T12:01:06.979Z,1991.00
2023-05-16T12:02:06.988Z,2023.00
2023-05-16T12:03:07.094Z,1988.00
2023-05-16T12:04:07.121Z,1996.00
2023-05-16T12:05:07.148Z,2001.00
2023-05-16T12:06:07.062Z,1982.00
2023-05-16T12:07:07.073Z,2007.00
2023-05-16T12:08:07.108Z,1992.00
2023-05-16T12:09:07.123Z,1995.00
2023-05-16T12:10:07.144Z,1969.00
2023-05-16T12:11:07.153Z,1985.00
2023-05-16T12:12:07.170Z,1995.00
2023-05-16T12:13:07.186Z,1971.00
2023-05-16T12:14:07.220Z,1962.00
2023-05-16T12:15:07.290Z,1962.00
2023-05-16T12:16:08.216Z,1963.00
2023-05-16T12:17:07.198Z,1962.00
2023-05-16T12:18:07.192Z,1964.00
2023-05-16T12:19:07.151Z,1952.00
2023-05-16T12:20:07.071Z,1951.00
2023-05-16T12:21:07.055Z,1963.00
2023-05-16T12:22:07.036Z,1959.00